WXM80 ListenWXM80 Stop

You find our weather info also at:

UK Metoffice

WeatherCloud

Weather Underground

Northeastern Weather Network

AWEKAS

Citizen Weather Observer Program (CWOP)

HAMweather, WeatherForYou, PWS Weather


Weather Underground History page Text

Daily Summary for October 4, 2016 Units:  English    Metric   Both
« Previous Day
Next Day »
Daily Weekly Monthly Yearly Custom
  High: Low: Average:
Temperature: 71.1 °F 59.0 °F 63.5 °F
Dew Point: 60.5 °F 52.0 °F 57.7 °F
Humidity: 96 % 66 % 82 %
Wind Speed: 10.2 mph 0.0 mph 4.2 mph
Wind Gust: 18.0 mph - -
Wind:- - ENE
Pressure: 30.31 in 30.09 in -
Precipitation: 0.00 in    
Historical Graphs
 
 
Tabular Data for October 4, 2016
Time Temperature Dew Point Pressure Wind Wind Speed Wind Gust Humidity Rainfall Rate (Hourly)
00:05 59.4 °F 57.7 °F 30.09 in Calm     94 % 0.00 in
00:10 59.3 °F 57.6 °F 30.09 in Calm     94 % 0.00 in
00:15 59.3 °F 57.6 °F 30.10 in Calm     94 % 0.00 in
00:21 59.2 °F 57.5 °F 30.09 in Calm     94 % 0.00 in
00:26 59.1 °F 57.4 °F 30.09 in Calm     94 % 0.00 in
00:31 59.0 °F 57.3 °F 30.10 in Calm     94 % 0.00 in
00:36 59.0 °F 57.3 °F 30.10 in Calm     94 % 0.00 in
00:41 59.0 °F 57.3 °F 30.10 in NE 0.3 mph 1.2 mph 94 % 0.00 in
00:46 59.1 °F 57.7 °F 30.11 in Calm   2.0 mph 95 % 0.00 in
00:51 59.1 °F 57.7 °F 30.11 in Calm   1.0 mph 95 % 0.00 in
00:56 59.3 °F 57.9 °F 30.11 in Calm   2.0 mph 95 % 0.00 in
01:01 59.5 °F 58.4 °F 30.11 in SE 0.6 mph 1.2 mph 96 % 0.00 in
01:06 59.8 °F 58.7 °F 30.11 in SE 0.6 mph 2.3 mph 96 % 0.00 in
01:11 60.0 °F 58.9 °F 30.11 in SE 0.1 mph 1.2 mph 96 % 0.00 in
01:16 60.2 °F 59.1 °F 30.11 in SE 0.2 mph 1.2 mph 96 % 0.00 in
01:21 60.3 °F 59.2 °F 30.11 in SE 0.2 mph 1.2 mph 96 % 0.00 in
01:26 60.3 °F 59.2 °F 30.11 in SE 0.1 mph 1.2 mph 96 % 0.00 in
01:31 60.3 °F 59.2 °F 30.11 in SE 0.1 mph 1.2 mph 96 % 0.00 in
01:36 60.3 °F 59.2 °F 30.12 in Calm   1.2 mph 96 % 0.00 in
01:41 60.3 °F 59.2 °F 30.12 in Calm   1.2 mph 96 % 0.00 in
01:46 60.4 °F 59.3 °F 30.12 in Calm   1.2 mph 96 % 0.00 in
01:51 60.4 °F 59.3 °F 30.12 in SE 0.1 mph   96 % 0.00 in
01:57 60.4 °F 59.3 °F 30.12 in SE 0.1 mph 1.2 mph 96 % 0.00 in
02:02 60.5 °F 59.4 °F 30.13 in Calm     96 % 0.00 in
02:07 60.5 °F 59.4 °F 30.13 in SE 0.1 mph 1.2 mph 96 % 0.00 in
02:12 60.4 °F 59.3 °F 30.13 in Calm     96 % 0.00 in
02:17 60.4 °F 59.3 °F 30.13 in SE 0.8 mph 2.3 mph 96 % 0.00 in
02:22 60.5 °F 59.4 °F 30.13 in ESE 1.5 mph 2.3 mph 96 % 0.00 in
02:27 60.6 °F 59.5 °F 30.14 in SE 1.7 mph 4.6 mph 96 % 0.00 in
02:32 60.7 °F 59.6 °F 30.14 in SE 0.2 mph 2.3 mph 96 % 0.00 in
02:42 60.9 °F 59.8 °F 30.14 in ESE 0.5 mph 2.3 mph 96 % 0.00 in
02:48 61.0 °F 59.9 °F 30.14 in East 0.9 mph 2.3 mph 96 % 0.00 in
02:53 61.0 °F 59.9 °F 30.14 in East 0.9 mph 3.5 mph 96 % 0.00 in
02:58 61.0 °F 59.9 °F 30.14 in East 1.3 mph 2.3 mph 96 % 0.00 in
03:03 61.1 °F 59.7 °F 30.14 in ESE 2.2 mph 3.5 mph 95 % 0.00 in
03:08 61.1 °F 59.7 °F 30.15 in East 2.1 mph 4.6 mph 95 % 0.00 in
03:13 61.2 °F 59.5 °F 30.15 in East 1.4 mph 3.5 mph 94 % 0.00 in
03:18 61.3 °F 59.6 °F 30.15 in East 1.6 mph 3.0 mph 94 % 0.00 in
03:23 61.4 °F 59.7 °F 30.15 in East 0.8 mph 2.3 mph 94 % 0.00 in
03:28 61.5 °F 59.8 °F 30.15 in East 1.6 mph 3.5 mph 94 % 0.00 in
03:33 61.6 °F 59.9 °F 30.15 in East 1.9 mph 3.5 mph 94 % 0.00 in
03:39 61.7 °F 60.0 °F 30.15 in East 3.9 mph 6.0 mph 94 % 0.00 in
03:44 61.9 °F 60.5 °F 30.15 in ENE 5.5 mph 9.2 mph 95 % 0.00 in
03:49 62.0 °F 60.3 °F 30.16 in East 5.1 mph 6.0 mph 94 % 0.00 in
03:54 62.0 °F 60.3 °F 30.15 in ENE 4.9 mph 6.9 mph 94 % 0.00 in
03:59 62.0 °F 60.0 °F 30.16 in East 4.5 mph 6.9 mph 93 % 0.00 in
04:04 62.1 °F 60.1 °F 30.16 in ENE 3.9 mph 5.0 mph 93 % 0.00 in
04:09 62.1 °F 59.7 °F 30.16 in East 6.6 mph 13.8 mph 92 % 0.00 in
04:14 62.0 °F 59.6 °F 30.16 in NE 5.3 mph 10.4 mph 92 % 0.00 in
04:19 62.0 °F 59.6 °F 30.16 in NNE 9.2 mph 10.4 mph 92 % 0.00 in
04:25 62.0 °F 59.3 °F 30.16 in ENE 6.4 mph 11.5 mph 91 % 0.00 in
04:30 61.9 °F 59.5 °F 30.16 in ENE 6.6 mph 10.4 mph 92 % 0.00 in
04:35 61.9 °F 59.2 °F 30.17 in ENE 5.9 mph 6.9 mph 91 % 0.00 in
04:40 61.9 °F 59.5 °F 30.17 in NE 7.1 mph 13.8 mph 92 % 0.00 in
04:45 61.9 °F 59.2 °F 30.17 in ENE 6.1 mph 12.7 mph 91 % 0.00 in
04:50 61.9 °F 59.2 °F 30.17 in ENE 7.1 mph 11.5 mph 91 % 0.00 in
04:55 61.9 °F 59.2 °F 30.17 in ENE 5.5 mph 11.5 mph 91 % 0.00 in
05:00 61.9 °F 59.2 °F 30.17 in ENE 7.0 mph 10.0 mph 91 % 0.00 in
05:05 61.9 °F 59.2 °F 30.17 in ENE 4.9 mph 12.7 mph 91 % 0.00 in
05:10 61.8 °F 59.1 °F 30.17 in ENE 3.9 mph 7.0 mph 91 % 0.00 in
05:16 61.8 °F 58.8 °F 30.17 in NE 4.0 mph 6.9 mph 90 % 0.00 in
05:21 61.8 °F 58.9 °F 30.18 in ENE 6.0 mph 13.0 mph 90 % 0.00 in
05:26 61.8 °F 58.5 °F 30.18 in ENE 5.0 mph 12.0 mph 89 % 0.00 in
05:31 61.8 °F 58.5 °F 30.18 in ENE 5.0 mph 9.0 mph 89 % 0.00 in
05:36 61.8 °F 58.2 °F 30.18 in ENE 7.0 mph 10.0 mph 88 % 0.00 in
05:41 61.8 °F 58.2 °F 30.18 in ENE 5.0 mph 9.0 mph 88 % 0.00 in
05:45 61.8 °F 58.2 °F 30.19 in ENE 6.0 mph 12.0 mph 88 % 0.00 in
05:50 61.8 °F 57.9 °F 30.19 in ENE 7.0 mph 12.0 mph 87 % 0.00 in
05:56 61.8 °F 57.9 °F 30.19 in ENE 5.0 mph 12.0 mph 87 % 0.00 in
06:00 61.8 °F 57.9 °F 30.19 in ENE 6.7 mph 8.1 mph 87 % 0.00 in
06:05 61.8 °F 57.6 °F 30.19 in ENE 4.5 mph 8.1 mph 86 % 0.00 in
06:10 61.8 °F 57.9 °F 30.20 in ENE 3.0 mph 4.0 mph 87 % 0.00 in
06:16 61.9 °F 57.9 °F 30.20 in ENE 7.0 mph 12.0 mph 87 % 0.00 in
06:21 61.8 °F 57.9 °F 30.20 in ENE 7.0 mph 12.0 mph 87 % 0.00 in
06:26 61.8 °F 57.9 °F 30.20 in ENE 6.0 mph 12.0 mph 87 % 0.00 in
06:31 61.8 °F 57.9 °F 30.20 in ENE 7.0 mph 14.0 mph 87 % 0.00 in
06:36 61.7 °F 57.5 °F 30.21 in ENE 8.0 mph 18.0 mph 86 % 0.00 in
06:41 61.7 °F 57.5 °F 30.21 in ENE 6.0 mph 12.0 mph 86 % 0.00 in
06:45 61.7 °F 57.5 °F 30.21 in ENE 6.0 mph 12.0 mph 86 % 0.00 in
06:50 61.7 °F 57.5 °F 30.22 in ENE 8.6 mph 11.5 mph 86 % 0.00 in
06:55 61.7 °F 57.5 °F 30.22 in ENE 7.0 mph 13.0 mph 86 % 0.00 in
07:01 61.7 °F 57.5 °F 30.22 in East 7.4 mph 11.5 mph 86 % 0.00 in
07:05 61.7 °F 57.5 °F 30.22 in ENE 7.0 mph 12.0 mph 86 % 0.00 in
07:11 61.7 °F 57.1 °F 30.22 in ENE 8.0 mph 15.0 mph 85 % 0.00 in
07:16 61.7 °F 57.5 °F 30.23 in ENE 6.0 mph 12.0 mph 86 % 0.00 in
07:21 61.7 °F 57.1 °F 30.23 in ENE 7.0 mph 15.0 mph 85 % 0.00 in
07:26 61.6 °F 56.7 °F 30.23 in East 7.0 mph 14.0 mph 84 % 0.00 in
07:31 61.7 °F 57.1 °F 30.23 in ENE 8.0 mph 13.0 mph 85 % 0.00 in
07:36 61.7 °F 57.1 °F 30.23 in East 7.9 mph 13.8 mph 85 % 0.00 in
07:41 61.7 °F 56.8 °F 30.23 in NE 8.9 mph 12.0 mph 84 % 0.00 in
07:46 61.7 °F 56.8 °F 30.24 in ENE 6.9 mph 10.4 mph 84 % 0.00 in
07:51 61.7 °F 56.8 °F 30.24 in ENE 6.4 mph 10.0 mph 84 % 0.00 in
07:56 61.8 °F 56.6 °F 30.24 in ENE 6.5 mph 12.7 mph 83 % 0.00 in
08:01 61.8 °F 56.9 °F 30.24 in ENE 8.9 mph 11.5 mph 84 % 0.00 in
08:06 61.8 °F 56.6 °F 30.24 in NE 9.5 mph 11.0 mph 83 % 0.00 in
08:16 61.7 °F 56.1 °F 30.24 in ENE 8.6 mph 13.8 mph 82 % 0.00 in
08:22 61.8 °F 56.6 °F 30.24 in East 7.5 mph 11.5 mph 83 % 0.00 in
08:27 61.8 °F 56.9 °F 30.25 in ENE 7.6 mph 10.4 mph 84 % 0.00 in
08:37 61.8 °F 56.9 °F 30.25 in East 7.5 mph 9.2 mph 84 % 0.00 in
08:42 61.9 °F 56.7 °F 30.25 in ENE 6.9 mph 11.0 mph 83 % 0.00 in
08:47 61.9 °F 57.0 °F 30.25 in ENE 7.3 mph 9.2 mph 84 % 0.00 in
08:52 61.9 °F 56.7 °F 30.25 in ENE 9.2 mph 12.7 mph 83 % 0.00 in
08:57 61.9 °F 56.3 °F 30.26 in East 9.1 mph 13.8 mph 82 % 0.00 in
09:02 61.9 °F 56.0 °F 30.26 in ENE 9.4 mph 15.0 mph 81 % 0.00 in
09:07 61.9 °F 56.3 °F 30.26 in ENE 8.7 mph 12.7 mph 82 % 0.00 in
09:12 62.0 °F 56.1 °F 30.26 in East 8.5 mph 12.0 mph 81 % 0.00 in
09:17 62.0 °F 55.8 °F 30.26 in ENE 7.4 mph 11.5 mph 80 % 0.00 in
09:23 62.0 °F 55.8 °F 30.27 in ENE 7.3 mph 11.5 mph 80 % 0.00 in
09:28 62.0 °F 55.1 °F 30.27 in ENE 10.2 mph 16.1 mph 78 % 0.00 in
09:33 62.1 °F 55.5 °F 30.27 in ENE 8.6 mph 15.0 mph 79 % 0.00 in
09:38 62.2 °F 56.0 °F 30.27 in ENE 7.4 mph 13.0 mph 80 % 0.00 in
09:43 62.2 °F 55.6 °F 30.27 in East 9.0 mph 15.0 mph 79 % 0.00 in
09:48 62.3 °F 55.7 °F 30.27 in NE 8.4 mph 11.5 mph 79 % 0.00 in
09:53 62.3 °F 55.4 °F 30.27 in East 6.9 mph 11.5 mph 78 % 0.00 in
09:58 62.3 °F 56.0 °F 30.27 in East 5.3 mph 8.1 mph 80 % 0.00 in
10:03 62.5 °F 55.5 °F 30.27 in East 7.1 mph 9.2 mph 78 % 0.00 in
10:08 62.6 °F 55.3 °F 30.27 in NNE 8.5 mph 12.7 mph 77 % 0.00 in
10:14 62.8 °F 55.5 °F 30.27 in NE 7.6 mph 11.5 mph 77 % 0.00 in
10:19 62.9 °F 55.9 °F 30.27 in NE 7.5 mph 10.4 mph 78 % 0.00 in
10:24 63.0 °F 56.0 °F 30.28 in NE 3.2 mph 6.9 mph 78 % 0.00 in
10:29 63.1 °F 56.1 °F 30.27 in ENE 5.1 mph 9.2 mph 78 % 0.00 in
10:34 63.3 °F 56.3 °F 30.27 in ENE 5.0 mph 8.0 mph 78 % 0.00 in
10:39 63.5 °F 56.5 °F 30.27 in ENE 7.2 mph 11.5 mph 78 % 0.00 in
10:44 63.6 °F 55.9 °F 30.27 in ENE 7.5 mph 15.0 mph 76 % 0.00 in
10:49 63.7 °F 56.4 °F 30.27 in ENE 6.7 mph 11.5 mph 77 % 0.00 in
10:54 63.8 °F 56.4 °F 30.28 in ENE 4.9 mph 9.2 mph 77 % 0.00 in
11:00 63.9 °F 56.2 °F 30.28 in East 5.2 mph 10.4 mph 76 % 0.00 in
11:05 64.2 °F 57.2 °F 30.27 in ENE 6.4 mph 14.0 mph 78 % 0.00 in
11:10 64.5 °F 57.5 °F 30.27 in NE 3.9 mph 6.9 mph 78 % 0.00 in
11:15 64.9 °F 57.9 °F 30.27 in ENE 7.0 mph 11.5 mph 78 % 0.00 in
11:20 65.0 °F 57.2 °F 30.28 in ENE 5.2 mph 8.0 mph 76 % 0.00 in
11:25 64.9 °F 57.2 °F 30.28 in NE 4.3 mph 9.2 mph 76 % 0.00 in
11:30 65.0 °F 57.6 °F 30.28 in East 5.0 mph 10.4 mph 77 % 0.00 in
11:35 65.1 °F 57.7 °F 30.28 in ENE 3.0 mph 5.0 mph 77 % 0.00 in
11:40 65.4 °F 57.6 °F 30.28 in ENE 6.9 mph 8.1 mph 76 % 0.00 in
11:45 65.7 °F 57.6 °F 30.28 in ENE 4.2 mph 9.2 mph 75 % 0.00 in
11:51 65.7 °F 57.2 °F 30.28 in ENE 5.2 mph 10.4 mph 74 % 0.00 in
11:56 65.7 °F 57.2 °F 30.28 in ENE 5.0 mph 10.0 mph 74 % 0.00 in
12:01 65.7 °F 57.6 °F 30.28 in ENE 3.3 mph 4.6 mph 75 % 0.00 in
12:06 65.8 °F 58.0 °F 30.28 in ENE 4.4 mph 8.1 mph 76 % 0.00 in
12:16 65.8 °F 57.3 °F 30.28 in ENE 3.7 mph 9.2 mph 74 % 0.00 in
12:21 65.7 °F 57.6 °F 30.28 in ENE 4.4 mph 8.1 mph 75 % 0.00 in
12:26 65.6 °F 57.5 °F 30.28 in NE 4.1 mph 7.0 mph 75 % 0.00 in
12:31 65.6 °F 57.5 °F 30.28 in NE 4.6 mph 8.1 mph 75 % 0.00 in
12:36 65.6 °F 57.5 °F 30.28 in ENE 2.9 mph 8.1 mph 75 % 0.00 in
12:41 65.6 °F 57.8 °F 30.28 in NE 5.0 mph 10.4 mph 76 % 0.00 in
12:46 65.5 °F 58.1 °F 30.28 in ENE 3.0 mph 8.1 mph 77 % 0.00 in
12:52 65.5 °F 58.1 °F 30.28 in ENE 1.9 mph 9.2 mph 77 % 0.00 in
13:02 65.5 °F 57.7 °F 30.28 in ENE 1.9 mph 4.6 mph 76 % 0.00 in
13:07 65.6 °F 57.8 °F 30.27 in ENE 3.7 mph 6.9 mph 76 % 0.00 in
13:12 65.8 °F 58.4 °F 30.28 in ENE 3.6 mph 6.0 mph 77 % 0.00 in
13:17 66.0 °F 58.2 °F 30.27 in ENE 5.2 mph 8.1 mph 76 % 0.00 in
13:22 66.1 °F 57.9 °F 30.27 in NE 2.9 mph 3.5 mph 75 % 0.00 in
13:27 66.3 °F 58.1 °F 30.27 in ENE 2.6 mph 5.0 mph 75 % 0.00 in
13:32 66.5 °F 58.7 °F 30.27 in NE 3.0 mph 5.8 mph 76 % 0.00 in
13:37 66.7 °F 58.5 °F 30.27 in ENE 2.4 mph 8.1 mph 75 % 0.00 in
13:43 66.8 °F 58.2 °F 30.27 in ENE 3.2 mph 6.9 mph 74 % 0.00 in
13:48 66.9 °F 58.3 °F 30.26 in ENE 2.7 mph 4.6 mph 74 % 0.00 in
13:53 67.1 °F 58.9 °F 30.26 in East 2.4 mph 3.5 mph 75 % 0.00 in
13:58 67.5 °F 59.3 °F 30.26 in ENE 3.0 mph 3.5 mph 75 % 0.00 in
14:03 68.2 °F 60.0 °F 30.26 in ENE 2.2 mph 3.5 mph 75 % 0.00 in
14:08 68.7 °F 59.7 °F 30.26 in East 2.9 mph 4.6 mph 73 % 0.00 in
14:13 68.8 °F 59.0 °F 30.26 in ENE 2.9 mph 3.5 mph 71 % 0.00 in
14:18 69.1 °F 59.7 °F 30.26 in ENE 2.6 mph 3.5 mph 72 % 0.00 in
14:23 69.6 °F 60.2 °F 30.26 in ENE 1.3 mph 3.5 mph 72 % 0.00 in
14:28 70.1 °F 60.3 °F 30.26 in East 2.5 mph 3.5 mph 71 % 0.00 in
14:34 70.4 °F 59.3 °F 30.26 in ENE 3.8 mph 5.0 mph 68 % 0.00 in
14:39 70.6 °F 60.3 °F 30.26 in NE 1.7 mph 3.5 mph 70 % 0.00 in
14:44 70.7 °F 59.2 °F 30.26 in ENE 4.7 mph 6.9 mph 67 % 0.00 in
14:49 70.9 °F 59.4 °F 30.26 in ENE 2.0 mph 3.5 mph 67 % 0.00 in
14:54 71.0 °F 59.9 °F 30.26 in ENE 2.3 mph 3.5 mph 68 % 0.00 in
14:59 71.1 °F 59.6 °F 30.26 in ENE 2.1 mph 3.5 mph 67 % 0.00 in
15:04 71.1 °F 60.0 °F 30.25 in ENE 2.4 mph 3.5 mph 68 % 0.00 in
15:09 71.0 °F 59.5 °F 30.25 in ENE 1.7 mph 2.3 mph 67 % 0.00 in
15:14 70.8 °F 58.9 °F 30.25 in NE 2.6 mph 4.6 mph 66 % 0.00 in
15:19 70.5 °F 58.6 °F 30.25 in ENE 2.8 mph 4.6 mph 66 % 0.00 in
15:25 70.3 °F 58.8 °F 30.25 in ENE 3.7 mph 4.6 mph 67 % 0.00 in
15:30 70.0 °F 59.4 °F 30.25 in ENE 2.0 mph 3.5 mph 69 % 0.00 in
15:35 69.7 °F 59.9 °F 30.24 in ENE 1.9 mph 3.5 mph 71 % 0.00 in
15:40 69.4 °F 59.6 °F 30.24 in ENE 2.5 mph 3.5 mph 71 % 0.00 in
15:45 69.1 °F 59.7 °F 30.24 in ENE 2.4 mph 3.5 mph 72 % 0.00 in
15:50 68.9 °F 59.5 °F 30.24 in ENE 2.4 mph 3.5 mph 72 % 0.00 in
15:55 68.7 °F 58.9 °F 30.24 in ENE 3.0 mph 7.0 mph 71 % 0.00 in
16:00 68.5 °F 58.3 °F 30.24 in ENE 3.7 mph 4.6 mph 70 % 0.00 in
16:05 68.3 °F 58.1 °F 30.23 in ENE 5.0 mph 6.9 mph 70 % 0.00 in
16:10 68.1 °F 57.9 °F 30.23 in ENE 3.7 mph 6.9 mph 70 % 0.00 in
16:15 68.0 °F 57.4 °F 30.24 in ENE 5.0 mph 8.1 mph 69 % 0.00 in
16:21 67.9 °F 57.4 °F 30.24 in ENE 5.0 mph 8.0 mph 69 % 0.00 in
16:26 67.8 °F 57.7 °F 30.24 in ENE 6.0 mph 9.0 mph 70 % 0.00 in
16:36 67.6 °F 57.5 °F 30.24 in ENE 5.0 mph 10.0 mph 70 % 0.00 in
16:41 67.5 °F 57.4 °F 30.24 in ENE 3.0 mph 10.0 mph 70 % 0.00 in
16:46 67.4 °F 57.7 °F 30.24 in ENE 5.0 mph 10.0 mph 71 % 0.00 in
16:51 67.3 °F 57.6 °F 30.24 in ENE 6.0 mph 13.0 mph 71 % 0.00 in
16:56 67.2 °F 57.9 °F 30.24 in ENE 2.0 mph 9.0 mph 72 % 0.00 in
17:00 67.1 °F 57.0 °F 30.24 in ENE 2.8 mph 5.8 mph 70 % 0.00 in
17:06 67.1 °F 57.0 °F 30.25 in ENE 2.0 mph 9.0 mph 70 % 0.00 in
17:16 67.2 °F 57.9 °F 30.24 in NE 5.0 mph 10.0 mph 72 % 0.00 in
17:21 67.0 °F 57.7 °F 30.24 in ENE 3.0 mph 9.0 mph 72 % 0.00 in
17:26 66.9 °F 58.0 °F 30.25 in ENE 6.0 mph 8.1 mph 73 % 0.00 in
17:31 66.7 °F 57.4 °F 30.25 in ENE 6.0 mph 9.0 mph 72 % 0.00 in
17:36 66.7 °F 57.8 °F 30.25 in ENE 3.0 mph 8.0 mph 73 % 0.00 in
17:41 66.7 °F 57.8 °F 30.26 in ENE 1.7 mph 3.5 mph 73 % 0.00 in
17:46 66.6 °F 57.7 °F 30.25 in NE 4.5 mph 8.1 mph 73 % 0.00 in
17:51 66.5 °F 57.6 °F 30.25 in East 3.0 mph 5.0 mph 73 % 0.00 in
17:56 66.4 °F 57.5 °F 30.26 in ENE 1.7 mph 4.6 mph 73 % 0.00 in
18:01 66.4 °F 58.2 °F 30.26 in NE 3.2 mph 6.9 mph 75 % 0.00 in
18:06 66.3 °F 58.1 °F 30.26 in ENE 5.1 mph 9.0 mph 75 % 0.00 in
18:11 66.2 °F 58.0 °F 30.27 in NE 3.5 mph 8.1 mph 75 % 0.00 in
18:16 66.1 °F 58.3 °F 30.27 in ENE 4.3 mph 9.2 mph 76 % 0.00 in
18:21 66.0 °F 57.8 °F 30.26 in ENE 3.4 mph 7.0 mph 75 % 0.00 in
18:26 65.9 °F 57.7 °F 30.27 in ENE 3.6 mph 8.1 mph 75 % 0.00 in
18:31 65.8 °F 58.0 °F 30.27 in East 4.4 mph 7.0 mph 76 % 0.00 in
18:36 65.8 °F 58.4 °F 30.27 in NE 3.8 mph 5.8 mph 77 % 0.00 in
18:41 65.7 °F 57.9 °F 30.27 in ENE 4.8 mph 9.2 mph 76 % 0.00 in
18:47 65.6 °F 57.8 °F 30.27 in NE 4.1 mph 5.8 mph 76 % 0.00 in
18:52 65.5 °F 57.7 °F 30.28 in ENE 4.6 mph 10.4 mph 76 % 0.00 in
18:57 65.4 °F 58.0 °F 30.28 in ENE 3.2 mph 9.2 mph 77 % 0.00 in
19:02 65.3 °F 57.9 °F 30.28 in ENE 2.5 mph 4.6 mph 77 % 0.00 in
19:07 65.3 °F 58.3 °F 30.28 in NNE 3.0 mph 4.0 mph 78 % 0.00 in
19:12 65.2 °F 58.2 °F 30.28 in ENE 6.0 mph 10.4 mph 78 % 0.00 in
19:17 65.1 °F 58.1 °F 30.28 in NE 2.6 mph 6.9 mph 78 % 0.00 in
19:22 65.0 °F 58.0 °F 30.28 in NE 4.0 mph 6.9 mph 78 % 0.00 in
19:27 65.0 °F 58.0 °F 30.28 in ENE 4.6 mph 6.9 mph 78 % 0.00 in
19:32 64.9 °F 57.9 °F 30.28 in NNW 3.3 mph 6.9 mph 78 % 0.00 in
19:38 64.8 °F 57.8 °F 30.29 in ENE 5.6 mph 9.2 mph 78 % 0.00 in
19:43 64.7 °F 58.0 °F 30.30 in ENE 0.9 mph 3.5 mph 79 % 0.00 in
19:48 64.6 °F 57.9 °F 30.30 in East 0.9 mph 2.3 mph 79 % 0.00 in
19:53 64.4 °F 58.1 °F 30.30 in East 1.0 mph 3.5 mph 80 % 0.00 in
19:58 64.1 °F 58.1 °F 30.30 in Calm   1.2 mph 81 % 0.00 in
20:03 63.9 °F 58.3 °F 30.30 in Calm   1.2 mph 82 % 0.00 in
20:08 63.7 °F 58.8 °F 30.30 in Calm     84 % 0.00 in
20:13 63.5 °F 58.6 °F 30.30 in Calm     84 % 0.00 in
20:18 63.3 °F 58.7 °F 30.30 in Calm     85 % 0.00 in
20:23 63.1 °F 58.5 °F 30.30 in Calm     85 % 0.00 in
20:29 62.9 °F 58.3 °F 30.30 in Calm     85 % 0.00 in
20:34 62.7 °F 58.1 °F 30.30 in Calm     85 % 0.00 in
20:39 62.5 °F 57.9 °F 30.30 in SE 0.9 mph 3.5 mph 85 % 0.00 in
20:44 62.3 °F 58.1 °F 30.31 in Calm   1.2 mph 86 % 0.00 in
20:49 62.2 °F 58.0 °F 30.31 in Calm     86 % 0.00 in
20:54 62.0 °F 57.8 °F 30.30 in Calm     86 % 0.00 in
20:59 62.0 °F 58.1 °F 30.30 in Calm     87 % 0.00 in
21:04 61.8 °F 57.9 °F 30.30 in SE 0.9 mph 2.0 mph 87 % 0.00 in
21:10 61.7 °F 57.8 °F 30.30 in Calm     87 % 0.00 in
21:15 61.6 °F 57.7 °F 30.30 in Calm   1.2 mph 87 % 0.00 in
21:20 61.6 °F 57.7 °F 30.31 in Calm     87 % 0.00 in
21:25 61.5 °F 57.6 °F 30.31 in Calm     87 % 0.00 in
21:30 61.4 °F 57.8 °F 30.30 in SE 0.3 mph 1.2 mph 88 % 0.00 in
21:35 61.3 °F 56.4 °F 30.30 in ENE 7.2 mph 9.2 mph 84 % 0.00 in
21:40 61.3 °F 55.1 °F 30.30 in ENE 5.4 mph 10.4 mph 80 % 0.00 in
21:45 61.4 °F 55.2 °F 30.30 in ENE 3.6 mph 6.9 mph 80 % 0.00 in
21:50 61.6 °F 55.0 °F 30.30 in ENE 3.2 mph 8.1 mph 79 % 0.00 in
21:55 61.6 °F 55.0 °F 30.30 in East 4.8 mph 10.4 mph 79 % 0.00 in
22:01 61.7 °F 54.8 °F 30.30 in ENE 7.7 mph 15.0 mph 78 % 0.00 in
22:06 61.7 °F 54.8 °F 30.30 in East 7.5 mph 10.4 mph 78 % 0.00 in
22:11 61.8 °F 54.9 °F 30.30 in ENE 8.5 mph 11.5 mph 78 % 0.00 in
22:16 61.8 °F 54.9 °F 30.30 in ENE 7.5 mph 10.4 mph 78 % 0.00 in
22:21 61.8 °F 54.9 °F 30.30 in ENE 5.9 mph 10.0 mph 78 % 0.00 in
22:26 61.7 °F 54.4 °F 30.30 in ENE 10.0 mph 13.8 mph 77 % 0.00 in
22:31 61.6 °F 54.7 °F 30.30 in ENE 5.0 mph 10.4 mph 78 % 0.00 in
22:36 61.5 °F 54.6 °F 30.30 in NE 8.1 mph 11.5 mph 78 % 0.00 in
22:41 61.4 °F 54.8 °F 30.30 in ENE 5.1 mph 11.5 mph 79 % 0.00 in
22:47 61.3 °F 54.7 °F 30.30 in ENE 9.6 mph 11.5 mph 79 % 0.00 in
22:52 61.3 °F 55.1 °F 30.30 in ENE 8.7 mph 12.7 mph 80 % 0.00 in
22:57 61.2 °F 54.6 °F 30.30 in ENE 8.9 mph 12.7 mph 79 % 0.00 in
23:02 61.1 °F 54.9 °F 30.30 in NE 6.6 mph 10.4 mph 80 % 0.00 in
23:07 60.9 °F 54.7 °F 30.30 in ENE 8.3 mph 13.8 mph 80 % 0.00 in
23:12 60.9 °F 55.0 °F 30.29 in ENE 5.2 mph 9.2 mph 81 % 0.00 in
23:17 60.8 °F 55.3 °F 30.29 in ENE 7.0 mph 9.2 mph 82 % 0.00 in
23:22 60.8 °F 55.3 °F 30.29 in ENE 8.4 mph 11.5 mph 82 % 0.00 in
23:27 60.7 °F 54.8 °F 30.29 in ENE 7.4 mph 11.5 mph 81 % 0.00 in
23:32 60.7 °F 54.5 °F 30.29 in ENE 6.6 mph 11.5 mph 80 % 0.00 in
23:38 60.7 °F 53.8 °F 30.30 in ENE 4.6 mph 7.0 mph 78 % 0.00 in
23:43 60.6 °F 54.0 °F 30.30 in ENE 6.3 mph 10.4 mph 79 % 0.00 in
23:48 60.5 °F 53.3 °F 30.29 in NE 6.5 mph 11.5 mph 77 % 0.00 in
23:53 60.3 °F 52.0 °F 30.30 in ENE 4.1 mph 11.5 mph 74 % 0.00 in
23:58 60.2 °F 52.6 °F 30.29 in ENE 7.7 mph 11.5 mph 76 % 0.00 in
Crab Meadow Weather
Compliments of Weather Underground - 2.75 mb

Script developed by  Jim McMurry - jmcmurry@mwt.net Adapted for the template by  Wim van der Kuil - Leuven-Template.eu

Astronomy: Neptune was discovered in 1846 (over 150 years ago). Since that time it has still yet to make a complete orbit around the sun, because one Neptune year lasts 165 Earth years!